Colorado City, Colorado
Current Conditions -  °F | °C
As of 2:53 PM on Sunday 21 Dec 2014 (Local Time) from KPUB Reporting Station
Clear Clear  
Wind Chill: 55°   Ceiling: Unl
Heat Index: 55°   Visibility: 10mi
Dew Point: 21°   Wind: 24mph
Humidity: 27%   Direction: 280°W
Pressure: 29.55"   Gusts: NA
Location:  37.94°N, 104.85°W
Report Text: KPUB 212153Z AUTO 28021KT 10SM CLR 13/M06 A2955 RMK AO2 PK WND 29026/2102 SLP005 T01281061
Loading
Personal Weather Stations






























Interactive Weather Map New forecast layout! Learn more

10-Day Weather Forecast

Advertisements
Track Severe Weather on mobile